Terminal Aerodrome Forecast
Issued by NWS

Home | Current Version | Previous Version | Text Only | Print | Product List | Glossary On
Versions: 1 2 3 4 5 6 7 8 9 10 11 12 13 14
765
FTUS44 KLZK 111120
TAFADF
TAF
KADF 111120Z 1112/1212 VRB04KT P6SM SCT250
     FM111800 03008G15KT P6SM SCT025 SCT250
     FM120000 VRB05KT P6SM SCT250=

USA.gov is the U.S. government's official web portal to all federal, state and local government web resources and services.